sensor_id;sensor_type;location;lat;lon;timestamp;P1;durP1;ratioP1;P2;durP2;ratioP2
24102;SDS011;12278;53.058;9.028;2023-04-24T00:00:47;2.13;;;2.00;;
24102;SDS011;12278;53.058;9.028;2023-04-24T00:04:48;2.22;;;2.03;;
24102;SDS011;12278;53.058;9.028;2023-04-24T00:08:49;2.67;;;2.25;;
24102;SDS011;12278;53.058;9.028;2023-04-24T00:12:50;1.98;;;1.77;;
24102;SDS011;12278;53.058;9.028;2023-04-24T00:16:50;2.22;;;2.03;;
24102;SDS011;12278;53.058;9.028;2023-04-24T00:20:52;2.33;;;2.13;;
24102;SDS011;12278;53.058;9.028;2023-04-24T00:24:53;5.45;;;3.00;;
24102;SDS011;12278;53.058;9.028;2023-04-24T00:28:54;2.72;;;2.20;;
24102;SDS011;12278;53.058;9.028;2023-04-24T00:32:55;2.40;;;2.20;;
24102;SDS011;12278;53.058;9.028;2023-04-24T00:36:55;2.08;;;1.90;;
24102;SDS011;12278;53.058;9.028;2023-04-24T00:40:56;2.17;;;1.98;;
24102;SDS011;12278;53.058;9.028;2023-04-24T00:44:57;1.88;;;1.73;;
24102;SDS011;12278;53.058;9.028;2023-04-24T00:48:59;2.42;;;1.55;;
24102;SDS011;12278;53.058;9.028;2023-04-24T00:52:59;1.55;;;1.45;;
24102;SDS011;12278;53.058;9.028;2023-04-24T00:57:01;3.15;;;2.13;;
24102;SDS011;12278;53.058;9.028;2023-04-24T01:01:04;2.47;;;2.28;;
24102;SDS011;12278;53.058;9.028;2023-04-24T01:05:10;2.67;;;2.28;;
24102;SDS011;12278;53.058;9.028;2023-04-24T01:09:14;3.10;;;2.50;;
24102;SDS011;12278;53.058;9.028;2023-04-24T01:13:19;2.55;;;2.35;;
24102;SDS011;12278;53.058;9.028;2023-04-24T01:17:20;2.90;;;2.65;;
24102;SDS011;12278;53.058;9.028;2023-04-24T01:21:21;2.22;;;2.10;;
24102;SDS011;12278;53.058;9.028;2023-04-24T01:25:27;2.42;;;2.22;;
24102;SDS011;12278;53.058;9.028;2023-04-24T01:29:28;2.88;;;2.25;;
24102;SDS011;12278;53.058;9.028;2023-04-24T01:33:29;3.33;;;2.42;;
24102;SDS011;12278;53.058;9.028;2023-04-24T01:37:30;2.45;;;2.25;;
24102;SDS011;12278;53.058;9.028;2023-04-24T01:41:32;2.30;;;2.10;;
24102;SDS011;12278;53.058;9.028;2023-04-24T01:45:33;2.47;;;2.28;;
24102;SDS011;12278;53.058;9.028;2023-04-24T01:49:34;2.70;;;1.80;;
24102;SDS011;12278;53.058;9.028;2023-04-24T01:53:34;2.13;;;1.85;;
24102;SDS011;12278;53.058;9.028;2023-04-24T01:57:36;1.83;;;1.73;;
24102;SDS011;12278;53.058;9.028;2023-04-24T02:01:37;1.75;;;1.65;;
24102;SDS011;12278;53.058;9.028;2023-04-24T02:05:38;2.03;;;1.70;;
24102;SDS011;12278;53.058;9.028;2023-04-24T02:09:39;2.17;;;1.90;;
24102;SDS011;12278;53.058;9.028;2023-04-24T02:13:39;2.22;;;2.08;;
24102;SDS011;12278;53.058;9.028;2023-04-24T02:17:41;2.20;;;1.95;;
24102;SDS011;12278;53.058;9.028;2023-04-24T02:21:42;2.30;;;2.10;;
24102;SDS011;12278;53.058;9.028;2023-04-24T02:25:42;3.53;;;2.13;;
24102;SDS011;12278;53.058;9.028;2023-04-24T02:29:43;2.25;;;2.05;;
24102;SDS011;12278;53.058;9.028;2023-04-24T02:33:43;2.13;;;2.03;;
24102;SDS011;12278;53.058;9.028;2023-04-24T02:37:44;2.30;;;2.10;;
24102;SDS011;12278;53.058;9.028;2023-04-24T02:41:45;3.47;;;2.20;;
24102;SDS011;12278;53.058;9.028;2023-04-24T02:45:46;2.20;;;2.05;;
24102;SDS011;12278;53.058;9.028;2023-04-24T02:49:46;2.42;;;2.22;;
24102;SDS011;12278;53.058;9.028;2023-04-24T02:53:47;3.05;;;2.70;;
24102;SDS011;12278;53.058;9.028;2023-04-24T02:57:48;3.55;;;2.78;;
24102;SDS011;12278;53.058;9.028;2023-04-24T03:01:48;3.55;;;2.67;;
24102;SDS011;12278;53.058;9.028;2023-04-24T03:05:49;2.38;;;2.17;;
24102;SDS011;12278;53.058;9.028;2023-04-24T03:09:50;3.45;;;2.60;;
24102;SDS011;12278;53.058;9.028;2023-04-24T03:13:50;2.78;;;2.53;;
24102;SDS011;12278;53.058;9.028;2023-04-24T03:17:51;2.65;;;2.45;;
24102;SDS011;12278;53.058;9.028;2023-04-24T03:21:52;2.30;;;2.10;;
24102;SDS011;12278;53.058;9.028;2023-04-24T03:25:52;2.42;;;2.22;;
24102;SDS011;12278;53.058;9.028;2023-04-24T03:29:54;2.80;;;2.40;;
24102;SDS011;12278;53.058;9.028;2023-04-24T03:34:01;2.25;;;2.05;;
24102;SDS011;12278;53.058;9.028;2023-04-24T03:38:02;1.95;;;1.85;;
24102;SDS011;12278;53.058;9.028;2023-04-24T03:42:04;2.00;;;1.80;;
24102;SDS011;12278;53.058;9.028;2023-04-24T03:46:05;1.83;;;1.73;;
24102;SDS011;12278;53.058;9.028;2023-04-24T03:50:06;2.08;;;1.63;;
24102;SDS011;12278;53.058;9.028;2023-04-24T03:54:06;2.03;;;1.77;;
24102;SDS011;12278;53.058;9.028;2023-04-24T03:58:07;2.38;;;1.80;;
24102;SDS011;12278;53.058;9.028;2023-04-24T04:02:08;1.92;;;1.83;;
24102;SDS011;12278;53.058;9.028;2023-04-24T04:06:10;2.08;;;1.33;;
24102;SDS011;12278;53.058;9.028;2023-04-24T04:10:12;3.13;;;1.45;;
24102;SDS011;12278;53.058;9.028;2023-04-24T04:14:13;1.33;;;1.20;;
24102;SDS011;12278;53.058;9.028;2023-04-24T04:18:14;2.33;;;1.70;;
24102;SDS011;12278;53.058;9.028;2023-04-24T04:22:15;1.90;;;1.60;;
24102;SDS011;12278;53.058;9.028;2023-04-24T04:26:15;1.55;;;1.42;;
24102;SDS011;12278;53.058;9.028;2023-04-24T04:30:16;1.75;;;1.60;;
24102;SDS011;12278;53.058;9.028;2023-04-24T04:34:18;4.00;;;2.22;;
24102;SDS011;12278;53.058;9.028;2023-04-24T04:38:19;1.50;;;1.40;;
24102;SDS011;12278;53.058;9.028;2023-04-24T04:42:24;2.80;;;1.83;;
24102;SDS011;12278;53.058;9.028;2023-04-24T04:46:25;1.83;;;1.73;;
24102;SDS011;12278;53.058;9.028;2023-04-24T04:50:26;2.88;;;1.63;;
24102;SDS011;12278;53.058;9.028;2023-04-24T04:54:27;2.05;;;1.85;;
24102;SDS011;12278;53.058;9.028;2023-04-24T04:58:27;1.85;;;1.67;;
24102;SDS011;12278;53.058;9.028;2023-04-24T05:02:28;2.50;;;2.30;;
24102;SDS011;12278;53.058;9.028;2023-04-24T05:06:29;1.92;;;1.83;;
24102;SDS011;12278;53.058;9.028;2023-04-24T05:10:31;2.50;;;2.30;;
24102;SDS011;12278;53.058;9.028;2023-04-24T05:14:31;2.58;;;2.05;;
24102;SDS011;12278;53.058;9.028;2023-04-24T05:18:32;2.40;;;2.20;;
24102;SDS011;12278;53.058;9.028;2023-04-24T05:22:32;3.63;;;2.30;;
24102;SDS011;12278;53.058;9.028;2023-04-24T05:26:33;2.22;;;2.03;;
24102;SDS011;12278;53.058;9.028;2023-04-24T05:30:35;3.17;;;2.60;;
24102;SDS011;12278;53.058;9.028;2023-04-24T05:34:36;5.88;;;2.67;;
24102;SDS011;12278;53.058;9.028;2023-04-24T05:38:37;5.18;;;3.28;;
24102;SDS011;12278;53.058;9.028;2023-04-24T05:42:37;3.13;;;2.65;;
24102;SDS011;12278;53.058;9.028;2023-04-24T05:46:38;4.35;;;3.40;;
24102;SDS011;12278;53.058;9.028;2023-04-24T05:50:38;4.10;;;2.67;;
24102;SDS011;12278;53.058;9.028;2023-04-24T05:54:40;5.57;;;3.30;;
24102;SDS011;12278;53.058;9.028;2023-04-24T05:58:40;4.88;;;3.80;;
24102;SDS011;12278;53.058;9.028;2023-04-24T06:02:41;4.70;;;3.85;;
24102;SDS011;12278;53.058;9.028;2023-04-24T06:06:41;3.95;;;3.65;;
24102;SDS011;12278;53.058;9.028;2023-04-24T06:10:42;4.75;;;4.15;;
24102;SDS011;12278;53.058;9.028;2023-04-24T06:14:44;5.43;;;4.90;;
24102;SDS011;12278;53.058;9.028;2023-04-24T06:18:44;5.13;;;4.63;;
24102;SDS011;12278;53.058;9.028;2023-04-24T06:22:55;5.82;;;5.15;;
24102;SDS011;12278;53.058;9.028;2023-04-24T06:26:55;5.28;;;4.78;;
24102;SDS011;12278;53.058;9.028;2023-04-24T06:30:57;6.05;;;5.45;;
24102;SDS011;12278;53.058;9.028;2023-04-24T06:34:58;6.65;;;5.78;;
24102;SDS011;12278;53.058;9.028;2023-04-24T06:38:59;7.07;;;6.38;;
24102;SDS011;12278;53.058;9.028;2023-04-24T06:42:59;6.82;;;6.15;;
24102;SDS011;12278;53.058;9.028;2023-04-24T06:47:02;8.25;;;6.45;;
24102;SDS011;12278;53.058;9.028;2023-04-24T06:55:36;7.85;;;7.13;;
24102;SDS011;12278;53.058;9.028;2023-04-24T06:59:36;7.82;;;7.03;;
24102;SDS011;12278;53.058;9.028;2023-04-24T07:03:37;9.48;;;8.50;;
24102;SDS011;12278;53.058;9.028;2023-04-24T07:07:41;9.65;;;8.65;;
24102;SDS011;12278;53.058;9.028;2023-04-24T07:11:42;8.70;;;7.00;;
24102;SDS011;12278;53.058;9.028;2023-04-24T07:15:44;9.25;;;8.45;;
24102;SDS011;12278;53.058;9.028;2023-04-24T07:19:45;9.82;;;8.82;;
24102;SDS011;12278;53.058;9.028;2023-04-24T07:23:49;9.45;;;8.40;;
24102;SDS011;12278;53.058;9.028;2023-04-24T07:27:50;9.18;;;8.27;;
24102;SDS011;12278;53.058;9.028;2023-04-24T07:31:50;10.55;;;8.88;;
24102;SDS011;12278;53.058;9.028;2023-04-24T07:35:52;10.93;;;8.98;;
24102;SDS011;12278;53.058;9.028;2023-04-24T07:39:56;9.27;;;8.30;;
24102;SDS011;12278;53.058;9.028;2023-04-24T07:44:17;10.45;;;9.32;;
24102;SDS011;12278;53.058;9.028;2023-04-24T07:48:46;9.68;;;8.68;;
24102;SDS011;12278;53.058;9.028;2023-04-24T07:52:55;8.63;;;7.80;;
24102;SDS011;12278;53.058;9.028;2023-04-24T07:57:00;11.05;;;8.18;;
24102;SDS011;12278;53.058;9.028;2023-04-24T08:01:05;8.07;;;7.28;;
24102;SDS011;12278;53.058;9.028;2023-04-24T08:05:17;8.55;;;7.63;;
24102;SDS011;12278;53.058;9.028;2023-04-24T08:09:24;9.13;;;7.72;;
24102;SDS011;12278;53.058;9.028;2023-04-24T08:13:42;8.40;;;7.57;;
24102;SDS011;12278;53.058;9.028;2023-04-24T08:17:48;9.00;;;7.88;;
24102;SDS011;12278;53.058;9.028;2023-04-24T08:22:19;9.90;;;8.95;;
24102;SDS011;12278;53.058;9.028;2023-04-24T08:26:25;9.68;;;7.57;;
24102;SDS011;12278;53.058;9.028;2023-04-24T08:30:44;9.73;;;8.73;;
24102;SDS011;12278;53.058;9.028;2023-04-24T08:34:45;12.60;;;9.32;;
24102;SDS011;12278;53.058;9.028;2023-04-24T08:38:46;12.20;;;9.68;;
24102;SDS011;12278;53.058;9.028;2023-04-24T08:42:47;11.10;;;8.48;;
24102;SDS011;12278;53.058;9.028;2023-04-24T08:46:48;12.32;;;9.15;;
24102;SDS011;12278;53.058;9.028;2023-04-24T08:50:50;13.05;;;10.60;;
24102;SDS011;12278;53.058;9.028;2023-04-24T08:54:51;11.93;;;10.57;;
24102;SDS011;12278;53.058;9.028;2023-04-24T08:58:53;15.95;;;11.85;;
24102;SDS011;12278;53.058;9.028;2023-04-24T09:02:55;18.65;;;12.15;;
24102;SDS011;12278;53.058;9.028;2023-04-24T09:06:57;16.27;;;12.02;;
24102;SDS011;12278;53.058;9.028;2023-04-24T09:10:58;12.90;;;10.85;;
24102;SDS011;12278;53.058;9.028;2023-04-24T09:15:02;12.15;;;10.85;;
24102;SDS011;12278;53.058;9.028;2023-04-24T09:19:05;14.40;;;10.50;;
24102;SDS011;12278;53.058;9.028;2023-04-24T09:23:06;10.52;;;9.30;;
24102;SDS011;12278;53.058;9.028;2023-04-24T09:27:07;12.43;;;9.35;;
24102;SDS011;12278;53.058;9.028;2023-04-24T09:31:18;15.18;;;10.57;;
24102;SDS011;12278;53.058;9.028;2023-04-24T09:35:22;12.10;;;10.68;;
24102;SDS011;12278;53.058;9.028;2023-04-24T09:39:23;12.85;;;9.73;;
24102;SDS011;12278;53.058;9.028;2023-04-24T09:43:24;12.55;;;10.60;;
24102;SDS011;12278;53.058;9.028;2023-04-24T09:47:26;12.82;;;10.77;;
24102;SDS011;12278;53.058;9.028;2023-04-24T09:51:36;12.73;;;10.23;;
24102;SDS011;12278;53.058;9.028;2023-04-24T09:55:44;10.60;;;9.25;;
24102;SDS011;12278;53.058;9.028;2023-04-24T09:59:48;11.50;;;9.25;;
24102;SDS011;12278;53.058;9.028;2023-04-24T10:03:48;10.65;;;9.55;;
24102;SDS011;12278;53.058;9.028;2023-04-24T10:07:49;10.10;;;7.68;;
24102;SDS011;12278;53.058;9.028;2023-04-24T10:11:54;9.60;;;8.70;;
24102;SDS011;12278;53.058;9.028;2023-04-24T10:15:55;10.10;;;8.82;;
24102;SDS011;12278;53.058;9.028;2023-04-24T10:19:59;9.30;;;8.40;;
24102;SDS011;12278;53.058;9.028;2023-04-24T10:24:01;8.13;;;7.43;;
24102;SDS011;12278;53.058;9.028;2023-04-24T10:28:07;8.75;;;7.55;;
24102;SDS011;12278;53.058;9.028;2023-04-24T10:32:10;9.88;;;7.75;;
24102;SDS011;12278;53.058;9.028;2023-04-24T10:36:11;8.73;;;7.05;;
24102;SDS011;12278;53.058;9.028;2023-04-24T10:40:18;8.40;;;7.60;;
24102;SDS011;12278;53.058;9.028;2023-04-24T10:44:27;8.23;;;7.13;;
24102;SDS011;12278;53.058;9.028;2023-04-24T10:48:40;10.07;;;8.73;;
24102;SDS011;12278;53.058;9.028;2023-04-24T10:52:46;8.50;;;7.60;;
24102;SDS011;12278;53.058;9.028;2023-04-24T10:56:49;7.88;;;7.05;;
24102;SDS011;12278;53.058;9.028;2023-04-24T11:00:57;8.40;;;7.00;;
24102;SDS011;12278;53.058;9.028;2023-04-24T11:05:03;6.85;;;6.15;;
24102;SDS011;12278;53.058;9.028;2023-04-24T11:09:25;6.13;;;5.50;;
24102;SDS011;12278;53.058;9.028;2023-04-24T11:17:55;10.20;;;7.22;;
24102;SDS011;12278;53.058;9.028;2023-04-24T11:21:59;6.97;;;6.28;;
24102;SDS011;12278;53.058;9.028;2023-04-24T11:26:11;9.23;;;6.65;;
24102;SDS011;12278;53.058;9.028;2023-04-24T11:30:12;7.93;;;7.18;;
24102;SDS011;12278;53.058;9.028;2023-04-24T11:34:18;6.30;;;5.68;;
24102;SDS011;12278;53.058;9.028;2023-04-24T11:38:18;7.18;;;6.47;;
24102;SDS011;12278;53.058;9.028;2023-04-24T11:42:20;7.03;;;5.95;;
24102;SDS011;12278;53.058;9.028;2023-04-24T11:46:23;6.38;;;5.78;;
24102;SDS011;12278;53.058;9.028;2023-04-24T11:50:26;6.53;;;5.82;;
24102;SDS011;12278;53.058;9.028;2023-04-24T11:54:28;6.05;;;5.55;;
24102;SDS011;12278;53.058;9.028;2023-04-24T11:58:34;6.13;;;5.53;;
24102;SDS011;12278;53.058;9.028;2023-04-24T12:02:35;6.10;;;5.50;;
24102;SDS011;12278;53.058;9.028;2023-04-24T12:06:36;5.95;;;5.43;;
24102;SDS011;12278;53.058;9.028;2023-04-24T12:10:45;5.25;;;4.75;;
24102;SDS011;12278;53.058;9.028;2023-04-24T12:14:56;5.43;;;4.88;;
24102;SDS011;12278;53.058;9.028;2023-04-24T12:18:57;5.63;;;5.22;;
24102;SDS011;12278;53.058;9.028;2023-04-24T12:23:00;5.68;;;4.70;;
24102;SDS011;12278;53.058;9.028;2023-04-24T12:27:01;4.57;;;4.18;;
24102;SDS011;12278;53.058;9.028;2023-04-24T12:31:05;4.22;;;3.85;;
24102;SDS011;12278;53.058;9.028;2023-04-24T12:35:06;4.38;;;4.00;;
24102;SDS011;12278;53.058;9.028;2023-04-24T12:39:14;2.88;;;2.67;;
24102;SDS011;12278;53.058;9.028;2023-04-24T12:43:17;2.80;;;2.60;;
24102;SDS011;12278;53.058;9.028;2023-04-24T12:47:19;3.08;;;2.80;;
24102;SDS011;12278;53.058;9.028;2023-04-24T12:51:21;3.45;;;3.15;;
24102;SDS011;12278;53.058;9.028;2023-04-24T12:55:24;2.85;;;2.65;;
24102;SDS011;12278;53.058;9.028;2023-04-24T12:59:29;7.45;;;3.03;;
24102;SDS011;12278;53.058;9.028;2023-04-24T13:07:34;5.85;;;3.92;;
24102;SDS011;12278;53.058;9.028;2023-04-24T13:11:35;4.45;;;4.05;;
24102;SDS011;12278;53.058;9.028;2023-04-24T13:15:36;4.45;;;4.03;;
24102;SDS011;12278;53.058;9.028;2023-04-24T13:19:37;6.10;;;4.65;;
24102;SDS011;12278;53.058;9.028;2023-04-24T13:23:43;4.25;;;3.85;;
24102;SDS011;12278;53.058;9.028;2023-04-24T13:27:48;3.70;;;2.90;;
24102;SDS011;12278;53.058;9.028;2023-04-24T13:31:58;4.10;;;3.70;;
24102;SDS011;12278;53.058;9.028;2023-04-24T13:36:00;6.57;;;5.20;;
24102;SDS011;12278;53.058;9.028;2023-04-24T13:40:00;6.85;;;4.95;;
24102;SDS011;12278;53.058;9.028;2023-04-24T13:44:07;9.30;;;5.90;;
24102;SDS011;12278;53.058;9.028;2023-04-24T13:48:07;9.83;;;7.47;;
24102;SDS011;12278;53.058;9.028;2023-04-24T13:52:10;9.60;;;6.17;;
24102;SDS011;12278;53.058;9.028;2023-04-24T13:56:11;8.37;;;6.77;;
24102;SDS011;12278;53.058;9.028;2023-04-24T14:00:12;11.30;;;5.83;;
24102;SDS011;12278;53.058;9.028;2023-04-24T14:04:13;6.70;;;5.97;;
24102;SDS011;12278;53.058;9.028;2023-04-24T14:08:15;7.87;;;6.10;;
24102;SDS011;12278;53.058;9.028;2023-04-24T14:12:16;9.10;;;5.97;;
24102;SDS011;12278;53.058;9.028;2023-04-24T14:16:20;9.93;;;6.80;;
24102;SDS011;12278;53.058;9.028;2023-04-24T14:20:26;9.00;;;6.07;;
24102;SDS011;12278;53.058;9.028;2023-04-24T14:24:29;5.90;;;4.47;;
24102;SDS011;12278;53.058;9.028;2023-04-24T14:28:33;10.07;;;5.43;;
24102;SDS011;12278;53.058;9.028;2023-04-24T14:32:34;7.80;;;4.77;;
24102;SDS011;12278;53.058;9.028;2023-04-24T14:36:37;6.60;;;5.07;;
24102;SDS011;12278;53.058;9.028;2023-04-24T14:40:37;7.50;;;4.87;;
24102;SDS011;12278;53.058;9.028;2023-04-24T14:44:38;8.83;;;4.67;;
24102;SDS011;12278;53.058;9.028;2023-04-24T14:48:39;11.70;;;5.00;;
24102;SDS011;12278;53.058;9.028;2023-04-24T14:52:40;5.83;;;4.70;;
24102;SDS011;12278;53.058;9.028;2023-04-24T14:56:40;5.57;;;4.23;;
24102;SDS011;12278;53.058;9.028;2023-04-24T15:00:42;10.73;;;4.83;;
24102;SDS011;12278;53.058;9.028;2023-04-24T15:04:45;6.30;;;4.20;;
24102;SDS011;12278;53.058;9.028;2023-04-24T15:08:46;8.80;;;5.33;;
24102;SDS011;12278;53.058;9.028;2023-04-24T15:12:46;6.83;;;3.97;;
24102;SDS011;12278;53.058;9.028;2023-04-24T15:16:47;6.57;;;3.83;;
24102;SDS011;12278;53.058;9.028;2023-04-24T15:20:49;5.13;;;4.07;;
24102;SDS011;12278;53.058;9.028;2023-04-24T15:24:49;7.17;;;4.53;;
24102;SDS011;12278;53.058;9.028;2023-04-24T15:28:50;6.70;;;4.93;;
24102;SDS011;12278;53.058;9.028;2023-04-24T15:32:51;8.77;;;4.90;;
24102;SDS011;12278;53.058;9.028;2023-04-24T15:36:52;6.67;;;5.23;;
24102;SDS011;12278;53.058;9.028;2023-04-24T15:40:53;5.80;;;4.67;;
24102;SDS011;12278;53.058;9.028;2023-04-24T15:48:59;7.10;;;4.80;;
24102;SDS011;12278;53.058;9.028;2023-04-24T15:53:00;5.07;;;3.87;;
24102;SDS011;12278;53.058;9.028;2023-04-24T15:57:00;4.30;;;3.43;;
24102;SDS011;12278;53.058;9.028;2023-04-24T16:01:01;5.47;;;4.70;;
24102;SDS011;12278;53.058;9.028;2023-04-24T16:05:02;6.50;;;5.10;;
24102;SDS011;12278;53.058;9.028;2023-04-24T16:09:03;7.07;;;5.23;;
24102;SDS011;12278;53.058;9.028;2023-04-24T16:13:03;8.17;;;5.47;;
24102;SDS011;12278;53.058;9.028;2023-04-24T16:17:05;6.10;;;4.57;;
24102;SDS011;12278;53.058;9.028;2023-04-24T16:21:09;5.17;;;3.53;;
24102;SDS011;12278;53.058;9.028;2023-04-24T16:25:09;6.53;;;3.33;;
24102;SDS011;12278;53.058;9.028;2023-04-24T16:29:10;7.50;;;2.87;;
24102;SDS011;12278;53.058;9.028;2023-04-24T16:33:11;3.33;;;3.03;;
24102;SDS011;12278;53.058;9.028;2023-04-24T16:37:12;4.70;;;3.10;;
24102;SDS011;12278;53.058;9.028;2023-04-24T16:41:12;4.87;;;2.97;;
24102;SDS011;12278;53.058;9.028;2023-04-24T16:45:13;8.97;;;3.07;;
24102;SDS011;12278;53.058;9.028;2023-04-24T16:49:14;7.13;;;3.20;;
24102;SDS011;12278;53.058;9.028;2023-04-24T16:53:14;4.27;;;3.40;;
24102;SDS011;12278;53.058;9.028;2023-04-24T16:57:15;5.07;;;3.37;;
24102;SDS011;12278;53.058;9.028;2023-04-24T17:01:16;9.73;;;3.23;;
24102;SDS011;12278;53.058;9.028;2023-04-24T17:05:17;4.17;;;3.40;;
24102;SDS011;12278;53.058;9.028;2023-04-24T17:09:19;4.97;;;3.80;;
24102;SDS011;12278;53.058;9.028;2023-04-24T17:13:19;6.77;;;4.17;;
24102;SDS011;12278;53.058;9.028;2023-04-24T17:17:20;10.23;;;3.97;;
24102;SDS011;12278;53.058;9.028;2023-04-24T17:21:31;4.53;;;3.43;;
24102;SDS011;12278;53.058;9.028;2023-04-24T17:25:33;5.83;;;3.07;;
24102;SDS011;12278;53.058;9.028;2023-04-24T17:29:36;3.57;;;3.07;;
24102;SDS011;12278;53.058;9.028;2023-04-24T17:33:37;3.63;;;3.00;;
24102;SDS011;12278;53.058;9.028;2023-04-24T17:37:38;4.60;;;3.03;;
24102;SDS011;12278;53.058;9.028;2023-04-24T17:41:38;5.83;;;3.10;;
24102;SDS011;12278;53.058;9.028;2023-04-24T17:45:39;5.43;;;3.10;;
24102;SDS011;12278;53.058;9.028;2023-04-24T17:49:40;4.80;;;3.27;;
24102;SDS011;12278;53.058;9.028;2023-04-24T17:53:41;4.70;;;3.40;;
24102;SDS011;12278;53.058;9.028;2023-04-24T17:57:43;3.43;;;3.10;;
24102;SDS011;12278;53.058;9.028;2023-04-24T18:01:44;7.23;;;2.83;;
24102;SDS011;12278;53.058;9.028;2023-04-24T18:05:44;5.53;;;2.77;;
24102;SDS011;12278;53.058;9.028;2023-04-24T18:09:47;4.87;;;2.60;;
24102;SDS011;12278;53.058;9.028;2023-04-24T18:13:48;7.80;;;3.07;;
24102;SDS011;12278;53.058;9.028;2023-04-24T18:17:51;7.27;;;2.53;;
24102;SDS011;12278;53.058;9.028;2023-04-24T18:21:52;3.53;;;2.67;;
24102;SDS011;12278;53.058;9.028;2023-04-24T18:25:55;6.80;;;2.77;;
24102;SDS011;12278;53.058;9.028;2023-04-24T18:29:55;6.73;;;2.73;;
24102;SDS011;12278;53.058;9.028;2023-04-24T18:33:58;6.80;;;2.70;;
24102;SDS011;12278;53.058;9.028;2023-04-24T18:37:58;4.77;;;2.80;;
24102;SDS011;12278;53.058;9.028;2023-04-24T18:42:00;3.23;;;2.10;;
24102;SDS011;12278;53.058;9.028;2023-04-24T18:46:00;4.53;;;2.77;;
24102;SDS011;12278;53.058;9.028;2023-04-24T18:50:01;5.47;;;2.80;;
24102;SDS011;12278;53.058;9.028;2023-04-24T18:54:03;5.17;;;3.50;;
24102;SDS011;12278;53.058;9.028;2023-04-24T18:58:03;9.60;;;4.00;;
24102;SDS011;12278;53.058;9.028;2023-04-24T19:02:04;6.93;;;3.67;;
24102;SDS011;12278;53.058;9.028;2023-04-24T19:06:05;6.83;;;3.93;;
24102;SDS011;12278;53.058;9.028;2023-04-24T19:10:06;10.43;;;3.40;;
24102;SDS011;12278;53.058;9.028;2023-04-24T19:14:08;5.90;;;3.60;;
24102;SDS011;12278;53.058;9.028;2023-04-24T19:18:08;5.60;;;3.40;;
24102;SDS011;12278;53.058;9.028;2023-04-24T19:22:09;4.07;;;3.63;;
24102;SDS011;12278;53.058;9.028;2023-04-24T19:26:10;7.23;;;3.27;;
24102;SDS011;12278;53.058;9.028;2023-04-24T19:30:12;5.80;;;3.27;;
24102;SDS011;12278;53.058;9.028;2023-04-24T19:34:13;6.30;;;3.10;;
24102;SDS011;12278;53.058;9.028;2023-04-24T19:38:15;6.87;;;3.10;;
24102;SDS011;12278;53.058;9.028;2023-04-24T19:42:15;10.10;;;3.03;;
24102;SDS011;12278;53.058;9.028;2023-04-24T19:46:16;5.63;;;3.60;;
24102;SDS011;12278;53.058;9.028;2023-04-24T19:50:17;6.53;;;4.23;;
24102;SDS011;12278;53.058;9.028;2023-04-24T19:54:18;5.97;;;3.97;;
24102;SDS011;12278;53.058;9.028;2023-04-24T19:58:21;9.10;;;3.33;;
24102;SDS011;12278;53.058;9.028;2023-04-24T20:02:22;7.43;;;2.87;;
24102;SDS011;12278;53.058;9.028;2023-04-24T20:06:22;5.67;;;2.90;;
24102;SDS011;12278;53.058;9.028;2023-04-24T20:10:23;5.57;;;2.87;;
24102;SDS011;12278;53.058;9.028;2023-04-24T20:14:24;5.57;;;3.27;;
24102;SDS011;12278;53.058;9.028;2023-04-24T20:18:24;5.83;;;3.37;;
24102;SDS011;12278;53.058;9.028;2023-04-24T20:22:25;7.60;;;3.37;;
24102;SDS011;12278;53.058;9.028;2023-04-24T20:26:26;7.47;;;3.03;;
24102;SDS011;12278;53.058;9.028;2023-04-24T20:30:26;7.53;;;3.30;;
24102;SDS011;12278;53.058;9.028;2023-04-24T20:34:30;6.67;;;3.80;;
24102;SDS011;12278;53.058;9.028;2023-04-24T20:38:38;3.63;;;2.50;;
24102;SDS011;12278;53.058;9.028;2023-04-24T20:42:43;5.67;;;2.40;;
24102;SDS011;12278;53.058;9.028;2023-04-24T20:46:45;5.27;;;3.07;;
24102;SDS011;12278;53.058;9.028;2023-04-24T20:50:46;8.97;;;3.13;;
24102;SDS011;12278;53.058;9.028;2023-04-24T20:54:46;4.33;;;3.10;;
24102;SDS011;12278;53.058;9.028;2023-04-24T20:58:47;4.83;;;2.90;;
24102;SDS011;12278;53.058;9.028;2023-04-24T21:02:48;6.53;;;3.07;;
24102;SDS011;12278;53.058;9.028;2023-04-24T21:06:49;4.63;;;3.20;;
24102;SDS011;12278;53.058;9.028;2023-04-24T21:10:50;5.63;;;3.00;;
24102;SDS011;12278;53.058;9.028;2023-04-24T21:14:53;5.37;;;3.37;;
24102;SDS011;12278;53.058;9.028;2023-04-24T21:18:55;5.53;;;3.37;;
24102;SDS011;12278;53.058;9.028;2023-04-24T21:22:56;6.43;;;3.23;;
24102;SDS011;12278;53.058;9.028;2023-04-24T21:26:56;3.60;;;2.83;;
24102;SDS011;12278;53.058;9.028;2023-04-24T21:30:57;5.93;;;3.43;;
24102;SDS011;12278;53.058;9.028;2023-04-24T21:35:03;4.70;;;3.33;;
24102;SDS011;12278;53.058;9.028;2023-04-24T21:39:05;5.37;;;3.10;;
24102;SDS011;12278;53.058;9.028;2023-04-24T21:43:05;3.70;;;2.93;;
24102;SDS011;12278;53.058;9.028;2023-04-24T21:47:06;4.53;;;3.60;;
24102;SDS011;12278;53.058;9.028;2023-04-24T21:51:07;6.10;;;3.20;;
24102;SDS011;12278;53.058;9.028;2023-04-24T21:55:07;5.07;;;3.20;;
24102;SDS011;12278;53.058;9.028;2023-04-24T21:59:08;4.03;;;3.60;;
24102;SDS011;12278;53.058;9.028;2023-04-24T22:03:12;4.83;;;3.30;;
24102;SDS011;12278;53.058;9.028;2023-04-24T22:07:15;3.97;;;3.40;;
24102;SDS011;12278;53.058;9.028;2023-04-24T22:11:16;4.93;;;3.23;;
24102;SDS011;12278;53.058;9.028;2023-04-24T22:15:16;6.90;;;3.30;;
24102;SDS011;12278;53.058;9.028;2023-04-24T22:19:17;8.30;;;3.30;;
24102;SDS011;12278;53.058;9.028;2023-04-24T22:23:18;5.53;;;4.03;;
24102;SDS011;12278;53.058;9.028;2023-04-24T22:27:19;6.73;;;3.20;;
24102;SDS011;12278;53.058;9.028;2023-04-24T22:31:24;3.27;;;2.97;;
24102;SDS011;12278;53.058;9.028;2023-04-24T22:35:25;5.30;;;4.03;;
24102;SDS011;12278;53.058;9.028;2023-04-24T22:39:26;4.87;;;3.43;;
24102;SDS011;12278;53.058;9.028;2023-04-24T22:43:27;4.40;;;2.93;;
24102;SDS011;12278;53.058;9.028;2023-04-24T22:47:27;5.43;;;3.43;;
24102;SDS011;12278;53.058;9.028;2023-04-24T22:51:28;5.17;;;3.57;;
24102;SDS011;12278;53.058;9.028;2023-04-24T22:55:32;6.20;;;3.57;;
24102;SDS011;12278;53.058;9.028;2023-04-24T22:59:34;10.20;;;4.43;;
24102;SDS011;12278;53.058;9.028;2023-04-24T23:03:34;6.37;;;3.57;;
24102;SDS011;12278;53.058;9.028;2023-04-24T23:07:35;7.87;;;4.43;;
24102;SDS011;12278;53.058;9.028;2023-04-24T23:11:39;6.33;;;4.27;;
24102;SDS011;12278;53.058;9.028;2023-04-24T23:15:39;9.93;;;4.47;;
24102;SDS011;12278;53.058;9.028;2023-04-24T23:19:41;6.27;;;4.40;;
24102;SDS011;12278;53.058;9.028;2023-04-24T23:23:41;6.00;;;4.30;;
24102;SDS011;12278;53.058;9.028;2023-04-24T23:27:42;10.03;;;4.83;;
24102;SDS011;12278;53.058;9.028;2023-04-24T23:31:42;5.77;;;5.20;;
24102;SDS011;12278;53.058;9.028;2023-04-24T23:35:43;6.50;;;4.73;;
24102;SDS011;12278;53.058;9.028;2023-04-24T23:39:49;7.37;;;5.17;;
24102;SDS011;12278;53.058;9.028;2023-04-24T23:43:50;6.30;;;4.60;;
24102;SDS011;12278;53.058;9.028;2023-04-24T23:47:51;8.10;;;5.07;;
24102;SDS011;12278;53.058;9.028;2023-04-24T23:51:52;6.07;;;5.07;;
24102;SDS011;12278;53.058;9.028;2023-04-24T23:55:53;6.93;;;4.90;;
24102;SDS011;12278;53.058;9.028;2023-04-24T23:59:53;5.50;;;4.00;;
